Portada
METAR-TAF:

METAR-TAF

Aeropuertos :

Aeropuerto Internacional Sir Seretse Khama

Gaborone, Botsuana

latitud: 24-13S, longitud: 025-55E, altitud: 1005 m

Observación

El informe se hizo hace 56 minutos, a las 13:00 UTC
Viento 3 kt del sur, variando entre este y oeste-suroeste
Temperatura 33°C
Humedad 19%
Presión 1018 hPa
Visibilidad 10 km o más
sin nubes por debajo de 1500 m y sin presencia de cumulonimbus.

METAR: FBSK 231300Z 18003KT 090V240 CAVOK 33/06 Q1018 NOSIG

Hora: 15:56 (13:56 UTC)

Pronóstico

El informe se hizo hace 3 horas y 56 minutos, a las 10:00 UTC
Pronóstico válido del 23 a las 12 UTC al 24 a las 18 UTC
Viento 5 kt con dirección variable
Visibilidad 10 km o más
sin nubes por debajo de 1500 m y sin presencia de cumulonimbus.
Evolucionando progresivamente
del 23 a las 20 UTC al 23 a las 22 UTC
Viento 5 kt del este

TAF: FBSK 231000Z 2312/2418 VRB05KT CAVOK BECMG 2320/2322 09005KT

Observaciones y pronósticos meteorológicos de más de 4000 aeropuertos (mensajes METAR y TAF).

Los puntos amarillos y rojos representan las estaciones disponibles.

Ponga el ratón en el punto deseado para ver el nombre de la estación.

Haga clic para ver las observaciones y los pronósticos meteorológicos.

Para cambiar el mapa : haga clic en los botones verdes con una cruz de color negro para hacer un zoom, en el botón verde con un guión para alejar o en las flechas verdes para mapas adyacentes.


METAR-TAF: